createdAt,value
2018-12-23T00:00:27.045Z,95905.64
2018-12-23T00:02:58.026Z,95909.58
2018-12-23T00:05:28.904Z,95909.05
2018-12-23T00:07:59.756Z,95893.76
2018-12-23T00:10:30.548Z,95886.98
2018-12-23T00:13:01.277Z,95883.23
2018-12-23T00:15:32.093Z,95885.13
2018-12-23T00:18:02.859Z,95875.05
2018-12-23T00:20:33.750Z,95858.39
2018-12-23T00:23:04.528Z,95874.20
2018-12-23T00:25:35.488Z,95876.06
2018-12-23T00:28:06.149Z,95879.89
2018-12-23T00:30:36.947Z,95872.07
2018-12-23T00:33:07.731Z,95867.03
2018-12-23T00:35:38.477Z,95851.59
2018-12-23T00:38:09.164Z,95856.33
2018-12-23T00:40:39.943Z,95871.91
2018-12-23T00:43:10.705Z,95881.51
2018-12-23T00:45:41.516Z,95890.63
2018-12-23T00:48:12.288Z,95901.91
2018-12-23T00:50:42.999Z,95907.41
2018-12-23T00:53:13.651Z,95904.05
2018-12-23T00:55:44.413Z,95885.91
2018-12-23T00:58:15.128Z,95891.82
2018-12-23T01:00:45.956Z,95912.55
2018-12-23T01:03:17.016Z,95932.14
2018-12-23T01:05:47.745Z,95929.98
2018-12-23T01:08:18.526Z,95922.53
2018-12-23T01:10:49.225Z,95908.67
2018-12-23T01:13:19.981Z,95914.61
2018-12-23T01:15:50.768Z,95915.16
2018-12-23T01:18:21.645Z,95922.67
2018-12-23T01:20:52.358Z,95908.57
2018-12-23T01:23:23.265Z,95902.66
2018-12-23T01:25:54.403Z,95884.04
2018-12-23T01:28:25.195Z,95886.03
2018-12-23T01:30:55.909Z,95894.52
2018-12-23T01:33:26.664Z,95899.70
2018-12-23T01:35:57.666Z,95907.33
2018-12-23T01:38:28.412Z,95905.67
2018-12-23T01:40:59.167Z,95911.27
2018-12-23T01:43:29.929Z,95918.95
2018-12-23T01:46:00.671Z,95912.17
2018-12-23T01:48:31.464Z,95911.22
2018-12-23T01:51:02.124Z,95921.33
2018-12-23T01:53:32.996Z,95920.60
2018-12-23T01:56:03.779Z,95918.80
2018-12-23T01:58:35.050Z,95914.18
2018-12-23T02:01:05.784Z,95912.50
2018-12-23T02:03:36.524Z,95917.54
2018-12-23T02:06:07.254Z,95919.25
2018-12-23T02:08:37.984Z,95928.77
2018-12-23T02:11:08.728Z,95932.97
2018-12-23T02:13:39.398Z,95943.64
2018-12-23T02:16:10.248Z,95953.47
2018-12-23T02:18:41.025Z,95936.98
2018-12-23T02:21:11.765Z,95942.41
2018-12-23T02:23:42.945Z,95936.70
2018-12-23T02:26:13.697Z,95937.89
2018-12-23T02:28:44.488Z,95943.55
2018-12-23T02:31:15.254Z,95947.77
2018-12-23T02:33:46.167Z,95958.73
2018-12-23T02:36:16.906Z,95951.48
2018-12-23T02:38:47.635Z,95944.41
2018-12-23T02:41:18.485Z,95951.39
2018-12-23T02:43:49.217Z,95948.69
2018-12-23T02:46:19.948Z,95956.77
2018-12-23T02:48:53.725Z,95953.84
2018-12-23T02:51:24.449Z,95953.45
2018-12-23T02:53:55.181Z,95970.77
2018-12-23T02:56:25.870Z,95966.78
2018-12-23T02:58:56.841Z,95973.73
2018-12-23T03:01:27.606Z,95964.07
2018-12-23T03:03:58.253Z,95949.41
2018-12-23T03:06:28.973Z,95935.09
2018-12-23T03:08:59.684Z,95927.41
2018-12-23T03:11:30.404Z,95932.13
2018-12-23T03:14:01.184Z,95941.17
2018-12-23T03:16:31.905Z,95951.33
2018-12-23T03:19:02.625Z,95932.38
2018-12-23T03:21:33.417Z,95912.95
2018-12-23T03:24:04.189Z,95898.72
2018-12-23T03:26:34.917Z,95902.63
2018-12-23T03:29:05.753Z,95910.41
2018-12-23T03:31:36.464Z,95915.70
2018-12-23T03:34:07.211Z,95922.27
2018-12-23T03:36:37.987Z,95919.05
2018-12-23T03:39:08.948Z,95924.33
2018-12-23T03:41:39.685Z,95924.46
2018-12-23T03:44:10.840Z,95931.98
2018-12-23T03:46:41.503Z,95948.92
2018-12-23T03:49:12.224Z,95945.87
2018-12-23T03:51:43.005Z,95922.87
2018-12-23T03:54:13.756Z,95920.05
2018-12-23T03:56:44.641Z,95935.37
2018-12-23T03:59:15.632Z,95937.58
2018-12-23T04:01:47.161Z,95931.17
2018-12-23T04:04:17.905Z,95929.86
2018-12-23T04:06:48.628Z,95927.03
2018-12-23T04:09:19.474Z,95936.65
2018-12-23T04:11:50.202Z,95943.21
2018-12-23T04:14:20.991Z,95940.09
2018-12-23T04:16:51.685Z,95949.28
2018-12-23T04:19:22.446Z,95956.91
2018-12-23T04:21:53.824Z,95962.59
2018-12-23T04:24:24.564Z,95979.16
2018-12-23T04:26:55.257Z,95969.66
2018-12-23T04:29:26.008Z,95966.39
2018-12-23T04:31:56.852Z,95969.27
2018-12-23T04:34:27.542Z,95971.82
2018-12-23T04:36:58.324Z,95980.45
2018-12-23T04:39:29.042Z,95976.52
2018-12-23T04:41:59.770Z,95974.27
2018-12-23T04:44:30.560Z,95989.94
2018-12-23T04:47:01.267Z,95998.33
2018-12-23T04:49:31.915Z,95993.19
2018-12-23T04:52:02.695Z,95999.97
2018-12-23T04:54:33.606Z,96000.50
2018-12-23T04:57:04.419Z,95999.48
2018-12-23T04:59:35.176Z,96014.38
2018-12-23T05:02:05.966Z,96016.63
2018-12-23T05:04:36.747Z,96014.95
2018-12-23T05:07:07.972Z,96001.39
2018-12-23T05:09:39.039Z,96001.69
2018-12-23T05:12:09.829Z,96009.52
2018-12-23T05:14:40.604Z,95999.70
2018-12-23T05:17:11.285Z,95987.83
2018-12-23T05:19:48.646Z,95996.94
2018-12-23T05:22:19.400Z,95991.28
2018-12-23T05:24:50.167Z,95995.20
2018-12-23T05:27:20.975Z,95993.45
2018-12-23T05:29:52.029Z,96002.64
2018-12-23T05:32:22.767Z,96006.02
2018-12-23T05:34:53.548Z,96009.70
2018-12-23T05:37:24.345Z,96002.83
2018-12-23T05:39:55.158Z,95991.13
2018-12-23T05:42:25.970Z,95993.56
2018-12-23T05:44:56.748Z,95994.31
2018-12-23T05:47:27.467Z,95996.56
2018-12-23T05:49:58.205Z,96009.28
2018-12-23T05:52:28.916Z,96007.72
2018-12-23T05:54:59.665Z,96001.31
2018-12-23T05:57:30.346Z,95989.52
2018-12-23T06:00:01.085Z,95994.79
2018-12-23T06:02:31.864Z,96012.31
2018-12-23T06:05:02.638Z,96016.39
2018-12-23T06:07:33.365Z,96013.23
2018-12-23T06:10:04.065Z,96020.64
2018-12-23T06:12:34.827Z,96016.30
2018-12-23T06:15:06.049Z,96019.95
2018-12-23T06:17:36.840Z,96018.70
2018-12-23T06:20:08.242Z,96028.50
2018-12-23T06:22:39.151Z,96025.20
2018-12-23T06:25:09.875Z,96036.91
2018-12-23T06:27:40.626Z,96041.98
2018-12-23T06:30:11.367Z,96041.00
2018-12-23T06:32:42.067Z,96046.71
2018-12-23T06:35:13.339Z,96047.95
2018-12-23T06:37:44.121Z,96056.17
2018-12-23T06:40:15.561Z,96055.12
2018-12-23T06:42:46.341Z,96052.98
2018-12-23T06:45:17.368Z,96049.02
2018-12-23T06:47:48.251Z,96053.19
2018-12-23T06:50:19.816Z,96070.53
2018-12-23T06:52:50.524Z,96067.34
2018-12-23T06:55:21.333Z,96065.29
2018-12-23T06:57:52.140Z,96074.49
2018-12-23T07:00:22.898Z,96080.20
2018-12-23T07:02:53.621Z,96072.19
2018-12-23T07:05:24.394Z,96061.80
2018-12-23T07:07:55.116Z,96062.07
2018-12-23T07:10:25.856Z,96061.48
2018-12-23T07:12:56.593Z,96059.97
2018-12-23T07:15:27.364Z,96058.66
2018-12-23T07:17:58.146Z,96053.28
2018-12-23T07:20:28.930Z,96055.79
2018-12-23T07:22:59.644Z,96064.41
2018-12-23T07:25:30.438Z,96055.34
2018-12-23T07:28:01.124Z,96063.78
2018-12-23T07:30:31.925Z,96064.08
2018-12-23T07:33:02.692Z,96061.63
2018-12-23T07:35:33.492Z,96062.42
2018-12-23T07:38:05.197Z,96075.47
2018-12-23T07:40:36.281Z,96083.61
2018-12-23T07:43:12.356Z,96087.27
2018-12-23T07:45:43.085Z,96082.98
2018-12-23T07:48:13.864Z,96088.95
2018-12-23T07:50:44.824Z,96086.48
2018-12-23T07:53:15.561Z,96078.81
2018-12-23T07:55:46.428Z,96077.86
2018-12-23T07:58:17.165Z,96077.69
2018-12-23T08:00:47.880Z,96074.87
2018-12-23T08:03:18.621Z,96083.36
2018-12-23T08:05:49.465Z,96086.90
2018-12-23T08:08:20.199Z,96086.95
2018-12-23T08:10:52.034Z,96078.63
2018-12-23T08:13:23.587Z,96072.77
2018-12-23T08:15:55.421Z,96071.45
2018-12-23T08:18:27.960Z,96074.66
2018-12-23T08:21:00.826Z,96078.35
2018-12-23T08:23:32.964Z,96087.48
2018-12-23T08:26:03.718Z,96080.73
2018-12-23T08:28:34.625Z,96084.59
2018-12-23T08:31:05.378Z,96087.20
2018-12-23T08:33:36.292Z,96087.44
2018-12-23T08:36:07.079Z,96085.32
2018-12-23T08:38:37.869Z,96091.13
2018-12-23T08:41:08.634Z,96096.41
2018-12-23T08:43:39.641Z,96092.63
2018-12-23T08:46:10.552Z,96089.77
2018-12-23T08:48:41.343Z,96091.89
2018-12-23T08:51:12.049Z,96097.25
2018-12-23T08:53:46.098Z,96103.78
2018-12-23T08:56:17.089Z,96110.25
2018-12-23T08:58:47.891Z,96108.41
2018-12-23T09:01:18.643Z,96105.52
2018-12-23T09:03:49.446Z,96107.73
2018-12-23T09:06:25.253Z,96104.80
2018-12-23T09:08:56.302Z,96107.39
2018-12-23T09:11:27.392Z,96094.87
2018-12-23T09:14:02.835Z,96095.30
2018-12-23T09:16:33.563Z,96094.41
2018-12-23T09:19:04.343Z,96091.43
2018-12-23T09:21:35.100Z,96098.66
2018-12-23T09:24:06.177Z,96099.92
2018-12-23T09:26:43.102Z,96110.55
2018-12-23T09:29:14.062Z,96107.38
2018-12-23T09:31:44.761Z,96099.88
2018-12-23T09:34:15.537Z,96090.03
2018-12-23T09:36:47.798Z,96086.16
2018-12-23T09:39:18.788Z,96089.16
2018-12-23T09:41:49.600Z,96095.14
2018-12-23T09:44:20.421Z,96099.70
2018-12-23T09:46:51.190Z,96102.38
2018-12-23T09:49:22.422Z,96099.29
2018-12-23T09:51:53.245Z,96098.55
2018-12-23T09:54:24.113Z,96092.56
2018-12-23T09:56:54.993Z,96084.76
2018-12-23T09:59:25.806Z,96082.70
2018-12-23T10:02:01.670Z,96076.34
2018-12-23T10:04:32.547Z,96078.89
2018-12-23T10:07:03.280Z,96060.88
2018-12-23T10:09:34.123Z,96061.52
2018-12-23T10:12:04.898Z,96064.31
2018-12-23T10:14:35.876Z,96064.69
2018-12-23T10:17:06.861Z,96060.09
2018-12-23T10:19:37.750Z,96053.28
2018-12-23T10:22:08.616Z,96056.29
2018-12-23T10:24:39.441Z,96057.30
2018-12-23T10:27:10.173Z,96051.01
2018-12-23T10:29:41.115Z,96045.02
2018-12-23T10:32:11.874Z,96045.59
2018-12-23T10:34:42.723Z,96040.66
2018-12-23T10:37:13.476Z,96042.09
2018-12-23T10:39:44.172Z,96046.81
2018-12-23T10:42:14.921Z,96041.16
2018-12-23T10:44:45.755Z,96041.98
2018-12-23T10:47:16.521Z,96041.23
2018-12-23T10:49:47.581Z,96031.27
2018-12-23T10:52:18.401Z,96032.75
2018-12-23T10:54:49.309Z,96029.27
2018-12-23T10:57:20.070Z,96019.95
2018-12-23T10:59:51.126Z,96015.80
2018-12-23T11:02:22.183Z,96010.12
2018-12-23T11:04:56.812Z,96004.44
2018-12-23T11:07:27.653Z,95998.32
2018-12-23T11:10:02.319Z,95982.61
2018-12-23T11:12:32.309Z,95977.49
2018-12-23T11:15:04.466Z,95974.21
2018-12-23T11:17:35.287Z,95971.69
2018-12-23T11:20:09.837Z,95966.16
2018-12-23T11:22:40.622Z,95955.07
2018-12-23T11:25:11.381Z,95944.75
2018-12-23T11:27:42.222Z,95939.66
2018-12-23T11:30:13.159Z,95932.02
2018-12-23T11:32:43.883Z,95927.71
2018-12-23T11:35:16.387Z,95923.15
2018-12-23T11:37:47.166Z,95918.73
2018-12-23T11:40:17.913Z,95918.17
2018-12-23T11:42:50.177Z,95914.84
2018-12-23T11:45:21.201Z,95915.54
2018-12-23T11:47:51.983Z,95914.24
2018-12-23T11:50:22.761Z,95905.72
2018-12-23T11:52:54.058Z,95903.70
2018-12-23T11:55:25.756Z,95909.98
2018-12-23T11:57:56.968Z,95908.93
2018-12-23T12:00:27.692Z,95909.83
2018-12-23T12:02:58.548Z,95908.17
2018-12-23T12:05:29.521Z,95905.86
2018-12-23T12:08:00.345Z,95890.28
2018-12-23T12:10:31.569Z,95889.26
2018-12-23T12:13:02.423Z,95880.05
2018-12-23T12:15:33.365Z,95876.16
2018-12-23T12:18:04.087Z,95869.69
2018-12-23T12:20:37.119Z,95862.11
2018-12-23T12:23:08.122Z,95853.52
2018-12-23T12:25:38.870Z,95854.05
2018-12-23T12:28:09.597Z,95850.09
2018-12-23T12:30:40.470Z,95846.23
2018-12-23T12:33:11.244Z,95841.66
2018-12-23T12:35:41.920Z,95830.59
2018-12-23T12:38:12.844Z,95826.27
2018-12-23T12:40:43.745Z,95821.50
2018-12-23T12:43:15.165Z,95809.49
2018-12-23T12:45:45.974Z,95801.47
2018-12-23T12:48:16.808Z,95801.27
2018-12-23T12:50:48.782Z,95799.79
2018-12-23T12:53:20.349Z,95802.41
2018-12-23T12:55:51.824Z,95799.47
2018-12-23T12:58:22.621Z,95802.19
2018-12-23T13:00:55.392Z,95799.77
2018-12-23T13:03:26.492Z,95791.05
2018-12-23T13:05:59.204Z,95781.95
2018-12-23T13:08:30.275Z,95774.41
2018-12-23T13:11:02.000Z,95773.59
2018-12-23T13:13:33.011Z,95774.68
2018-12-23T13:16:05.725Z,95737.48
2018-12-23T13:18:37.614Z,95766.72
2018-12-23T13:21:09.585Z,95765.38
2018-12-23T13:23:42.259Z,95761.38
2018-12-23T13:26:16.445Z,95759.91
2018-12-23T13:28:47.632Z,95752.03
2018-12-23T13:31:18.618Z,95745.57
2018-12-23T13:33:49.880Z,95750.88
2018-12-23T13:36:24.225Z,95742.59
2018-12-23T13:38:55.919Z,95741.55
2018-12-23T13:42:03.516Z,95741.77
2018-12-23T13:45:14.278Z,95738.96
2018-12-23T13:57:59.299Z,95737.09
2018-12-23T14:00:51.672Z,95735.62
2018-12-23T14:03:46.161Z,95736.20
2018-12-23T14:08:49.826Z,95730.09
2018-12-23T14:11:40.151Z,95726.06
2018-12-23T14:14:11.132Z,95726.22
2018-12-23T14:16:43.047Z,95713.39
2018-12-23T14:19:14.006Z,95712.08
2018-12-23T14:21:46.248Z,95718.89
2018-12-23T14:24:20.324Z,95719.25
2018-12-23T14:26:52.218Z,95717.06
2018-12-23T14:29:23.344Z,95715.84
2018-12-23T14:31:55.546Z,95718.42
2018-12-23T14:34:26.949Z,95715.74
2018-12-23T14:36:58.069Z,95708.38
2018-12-23T14:39:29.025Z,95706.55
2018-12-23T14:42:01.766Z,95705.41
2018-12-23T14:44:32.806Z,95696.11
2018-12-23T14:47:03.968Z,95693.91
2018-12-23T14:49:36.703Z,95687.63
2018-12-23T14:52:09.244Z,95687.47
2018-12-23T14:54:40.255Z,95690.18
2018-12-23T14:57:14.928Z,95676.41
2018-12-23T14:59:50.554Z,95682.81
2018-12-23T15:02:23.514Z,95678.75
2018-12-23T15:04:54.913Z,95665.77
2018-12-23T15:07:26.806Z,95675.25
2018-12-23T15:10:23.551Z,95676.77
2018-12-23T15:13:07.986Z,95670.89
2018-12-23T15:15:39.380Z,95666.74
2018-12-23T15:18:15.958Z,95667.05
2018-12-23T15:20:51.868Z,95670.28
2018-12-23T15:23:31.912Z,95660.14
2018-12-23T15:26:08.480Z,95662.44
2018-12-23T15:28:48.556Z,95652.84
2018-12-23T15:31:25.807Z,95644.05
2018-12-23T15:34:01.501Z,95644.22
2018-12-23T15:41:53.631Z,95601.73
2018-12-23T15:49:01.449Z,95606.58
2018-12-23T15:52:04.519Z,95582.33
2018-12-23T16:02:24.483Z,95572.52
2018-12-23T16:05:09.206Z,95582.33
2018-12-23T16:11:03.467Z,95576.98
2018-12-23T16:14:13.930Z,95564.87
2018-12-23T16:17:23.900Z,95600.05
2018-12-23T16:20:36.604Z,95541.06
2018-12-23T16:26:42.505Z,95539.07
2018-12-23T16:32:56.080Z,95540.66
2018-12-23T16:35:48.753Z,95542.48
2018-12-23T16:38:51.346Z,95533.06
2018-12-23T16:41:44.395Z,95523.33
2018-12-23T16:44:47.617Z,95507.41
2018-12-23T16:47:41.739Z,95533.61
2018-12-23T16:54:37.579Z,95527.59
2018-12-23T16:57:40.913Z,95495.66
2018-12-23T17:04:01.384Z,95486.70
2018-12-23T17:10:52.691Z,95478.47
2018-12-23T17:13:58.380Z,95472.39
2018-12-23T17:20:34.459Z,95460.75
2018-12-23T17:23:46.240Z,95507.78
2018-12-23T17:26:37.520Z,95485.07
2018-12-23T17:34:10.510Z,95472.98
2018-12-23T17:36:34.925Z,95499.66
2018-12-23T17:39:42.423Z,95472.52
2018-12-23T17:43:15.992Z,95503.20
2018-12-23T17:46:21.473Z,95492.55
2018-12-23T17:56:26.891Z,95514.63
2018-12-23T18:03:25.282Z,95502.87
2018-12-23T18:06:31.370Z,95473.58
2018-12-23T18:14:09.353Z,95474.09
2018-12-23T18:17:18.447Z,95502.33
2018-12-23T18:20:51.696Z,95507.83
2018-12-23T18:27:29.448Z,95488.15
2018-12-23T18:34:50.407Z,95474.27
2018-12-23T18:44:38.834Z,95467.27
2018-12-23T18:50:14.297Z,95501.08
2018-12-23T18:53:22.317Z,95453.29
2018-12-23T18:56:13.589Z,95470.77
2018-12-23T18:59:05.452Z,95487.52
2018-12-23T19:02:13.102Z,95459.27
2018-12-23T19:05:16.669Z,95454.95
2018-12-23T19:08:22.588Z,95447.88
2018-12-23T19:11:56.022Z,95482.36
2018-12-23T19:15:25.060Z,95471.06
2018-12-23T19:18:48.402Z,95433.59
2018-12-23T19:22:13.365Z,95438.89
2018-12-23T19:26:04.156Z,95420.49
2018-12-23T19:29:34.167Z,95419.83
2018-12-23T19:33:29.269Z,95441.88
2018-12-23T19:40:24.052Z,95459.38
2018-12-23T19:47:54.592Z,95438.49
2018-12-23T19:51:18.793Z,95445.63
2018-12-23T19:55:07.081Z,95399.73
2018-12-23T19:58:31.270Z,95430.52
2018-12-23T20:02:00.180Z,95389.13
2018-12-23T20:08:16.493Z,95407.94
2018-12-23T20:15:54.253Z,95399.49
2018-12-23T20:19:23.082Z,95437.83
2018-12-23T20:22:24.872Z,95439.58
2018-12-23T20:25:52.406Z,95403.70
2018-12-23T20:29:15.671Z,95399.30
2018-12-23T20:32:41.505Z,95379.23
2018-12-23T20:36:04.658Z,95411.47
2018-12-23T20:39:36.717Z,95386.86
2018-12-23T20:43:13.095Z,95430.57
2018-12-23T20:46:35.721Z,95388.32
2018-12-23T20:50:23.873Z,95439.06
2018-12-23T20:55:50.851Z,95416.86
2018-12-23T20:58:05.313Z,95378.17
2018-12-23T21:01:24.311Z,95382.28
2018-12-23T21:04:53.281Z,95394.06
2018-12-23T21:08:18.141Z,95395.58
2018-12-23T21:12:06.253Z,95401.77
2018-12-23T21:15:33.179Z,95407.02
2018-12-23T21:19:21.170Z,95418.52
2018-12-23T21:22:50.200Z,95382.87
2018-12-23T21:26:19.695Z,95417.31
2018-12-23T21:29:43.940Z,95418.13
2018-12-23T21:33:13.119Z,95391.37
2018-12-23T21:36:41.080Z,95433.70
2018-12-23T21:39:56.052Z,95406.72
2018-12-23T21:43:19.051Z,95392.84
2018-12-23T21:46:43.763Z,95398.34
2018-12-23T21:50:26.840Z,95407.98
2018-12-23T21:53:48.273Z,95420.73
2018-12-23T21:57:36.320Z,95422.61
2018-12-23T22:00:58.093Z,95382.75
2018-12-23T22:04:26.941Z,95379.09
2018-12-23T22:07:56.696Z,95371.55
2018-12-23T22:11:32.932Z,95375.91
2018-12-23T22:14:37.079Z,95366.56
2018-12-23T22:17:40.313Z,95358.73
2018-12-23T22:20:31.451Z,95357.75
2018-12-23T22:23:33.831Z,95398.16
2018-12-23T22:26:25.871Z,95364.16
2018-12-23T22:29:16.712Z,95354.08
2018-12-23T22:32:26.932Z,95340.52
2018-12-23T22:35:29.853Z,95348.11
2018-12-23T22:38:21.918Z,95345.27
2018-12-23T22:41:15.873Z,95340.10
2018-12-23T22:44:25.888Z,95338.95
2018-12-23T22:47:16.739Z,95337.67
2018-12-23T22:50:27.773Z,95342.66
2018-12-23T22:53:30.312Z,95379.81
2018-12-23T23:05:20.294Z,95328.55
2018-12-23T23:11:34.353Z,95303.81
2018-12-23T23:15:04.712Z,95333.05
2018-12-23T23:18:07.411Z,95297.77
2018-12-23T23:21:17.392Z,95268.69
2018-12-23T23:24:20.333Z,95261.11
2018-12-23T23:27:14.460Z,95249.68
2018-12-23T23:30:17.171Z,95264.16
2018-12-23T23:33:10.916Z,95257.56
2018-12-23T23:36:13.647Z,95230.06
2018-12-23T23:39:23.600Z,95266.06
2018-12-23T23:42:26.353Z,95221.94
2018-12-23T23:45:17.551Z,95217.88
2018-12-23T23:48:27.540Z,95224.64
2018-12-23T23:51:29.724Z,95198.87
2018-12-23T23:54:23.832Z,95210.08
2018-12-23T23:57:14.721Z,95199.39
